Time;durP1;ratioP1;P1;durP2;ratioP2;P2;SDS_P1;SDS_P2;PMS_P1;PMS_P2;Temp;Humidity;BMP_temperature;BMP_pressure;BME280_temperature;BME280_humidity;BME280_pressure;Samples;Min_cycle;Max_cycle;Signal;HPM_P1;HPM_P2
2023/09/23 00:00:58;;;;;;;0.75;0.40;;;11.00;97.40;;;;;;5080791;28;20044;-73
2023/09/23 00:03:26;;;;;;;0.55;0.40;;;11.00;99.90;;;;;;5082859;28;20055;-73
2023/09/23 00:05:53;;;;;;;0.68;0.30;;;11.00;99.90;;;;;;5083422;28;20189;-73
2023/09/23 00:08:20;;;;;;;0.70;0.40;;;11.00;99.90;;;;;;5082502;28;20052;-74
2023/09/23 00:10:50;;;;;;;0.50;0.40;;;10.90;99.90;;;;;;5064813;28;20047;-73
2023/09/23 00:13:18;;;;;;;0.40;0.30;;;10.90;99.90;;;;;;5081814;28;20419;-74
2023/09/23 00:15:44;;;;;;;0.32;0.25;;;10.90;99.90;;;;;;5065624;28;20044;-73
2023/09/23 00:18:17;;;;;;;0.60;0.32;;;10.90;99.90;;;;;;5081459;28;20090;-74
2023/09/23 00:20:45;;;;;;;0.60;0.30;;;10.80;99.90;;;;;;5081069;28;20136;-74
2023/09/23 00:23:15;;;;;;;1.02;0.40;;;10.80;99.90;;;;;;5077991;28;20548;-73
2023/09/23 00:25:44;;;;;;;0.20;0.20;;;10.80;99.90;;;;;;5080127;28;20296;-73
2023/09/23 00:28:12;;;;;;;0.32;0.30;;;10.80;99.90;;;;;;5059382;28;20468;-74
2023/09/23 00:30:39;;;;;;;1.33;0.50;;;10.80;99.90;;;;;;5077867;28;20121;-74
2023/09/23 00:33:07;;;;;;;1.15;0.73;;;10.70;99.90;;;;;;5080329;28;20048;-74
2023/09/23 00:35:36;;;;;;;1.05;0.45;;;10.70;99.90;;;;;;5081738;28;20164;-73
2023/09/23 00:38:04;;;;;;;0.52;0.38;;;10.70;99.90;;;;;;5080604;28;20384;-72
2023/09/23 00:40:34;;;;;;;0.75;0.40;;;10.70;99.90;;;;;;5081273;28;20048;-74
2023/09/23 00:43:09;;;;;;;0.60;0.40;;;10.70;99.90;;;;;;5081549;28;20055;-74
2023/09/23 00:45:35;;;;;;;0.32;0.32;;;10.60;99.90;;;;;;5062118;28;20066;-74
2023/09/23 00:48:03;;;;;;;0.30;0.30;;;10.60;99.90;;;;;;5081721;28;20048;-72
2023/09/23 00:50:34;;;;;;;0.93;0.40;;;10.60;99.90;;;;;;5081694;28;20051;-72
2023/09/23 00:53:01;;;;;;;0.85;0.30;;;10.60;99.90;;;;;;5081916;28;20376;-72
2023/09/23 00:55:30;;;;;;;0.65;0.35;;;10.60;99.90;;;;;;5064637;28;20044;-74
2023/09/23 00:58:00;;;;;;;1.35;0.50;;;10.60;99.90;;;;;;5081684;28;20063;-73
2023/09/23 01:00:29;;;;;;;0.40;0.40;;;10.60;99.90;;;;;;5081360;28;20059;-72
2023/09/23 01:02:56;;;;;;;1.08;0.43;;;10.60;99.90;;;;;;5063969;28;20393;-73
2023/09/23 01:05:27;;;;;;;0.82;0.40;;;10.60;99.90;;;;;;5048167;28;20052;-72
2023/09/23 01:07:56;;;;;;;0.63;0.50;;;10.60;99.90;;;;;;5059724;28;20488;-72
2023/09/23 01:10:23;;;;;;;0.63;0.38;;;10.50;99.90;;;;;;5086976;28;20453;-72
2023/09/23 01:12:51;;;;;;;0.60;0.40;;;10.50;99.90;;;;;;5064327;28;20055;-72
2023/09/23 01:15:18;;;;;;;0.35;0.30;;;10.50;99.90;;;;;;5081577;28;20051;-72
2023/09/23 01:17:47;;;;;;;0.60;0.40;;;10.50;99.90;;;;;;5080983;28;20068;-73
2023/09/23 01:20:17;;;;;;;1.42;0.40;;;10.50;99.90;;;;;;5048237;28;20132;-72
2023/09/23 01:22:45;;;;;;;0.82;0.30;;;10.50;99.90;;;;;;5081436;28;20058;-72
2023/09/23 01:25:12;;;;;;;0.82;0.50;;;10.40;99.90;;;;;;5064457;28;20052;-72
2023/09/23 01:27:39;;;;;;;1.27;0.45;;;10.40;99.90;;;;;;5080386;28;20097;-72
2023/09/23 01:30:06;;;;;;;0.63;0.30;;;10.40;99.90;;;;;;5080057;28;20051;-72
2023/09/23 01:32:36;;;;;;;1.85;0.60;;;10.30;99.90;;;;;;5077195;28;20040;-72
2023/09/23 01:35:05;;;;;;;0.52;0.32;;;10.30;99.90;;;;;;5083632;28;20055;-72
2023/09/23 01:37:32;;;;;;;0.63;0.30;;;10.30;1.00;;;;;;5061455;28;20051;-73
2023/09/23 01:39:58;;;;;;;0.63;0.50;;;10.30;1.00;;;;;;5082560;28;20052;-72
2023/09/23 01:42:25;;;;;;;0.50;0.43;;;10.30;1.00;;;;;;5050165;28;20044;-72
2023/09/23 01:44:53;;;;;;;0.80;0.43;;;10.30;1.00;;;;;;5056817;28;20502;-72
2023/09/23 01:47:21;;;;;;;0.30;0.30;;;10.30;1.00;;;;;;5082247;28;20140;-72
2023/09/23 01:49:48;;;;;;;0.68;0.40;;;10.30;1.00;;;;;;5065346;28;20116;-73
2023/09/23 01:52:16;;;;;;;0.50;0.32;;;10.20;1.00;;;;;;5081947;28;20048;-72
2023/09/23 01:54:46;;;;;;;0.55;0.35;;;10.30;1.00;;;;;;5085196;28;20048;-73
2023/09/23 01:57:16;;;;;;;0.63;0.38;;;10.20;1.00;;;;;;5086422;28;20381;-72
2023/09/23 01:59:44;;;;;;;0.80;0.43;;;10.20;1.00;;;;;;5086839;28;20055;-72
2023/09/23 02:02:11;;;;;;;0.40;0.30;;;10.10;1.00;;;;;;5068603;28;20048;-72
2023/09/23 02:04:40;;;;;;;0.80;0.47;;;10.10;1.00;;;;;;5066858;28;20141;-73
2023/09/23 02:07:10;;;;;;;0.88;0.40;;;10.10;1.00;;;;;;5084726;28;20051;-72
2023/09/23 02:09:37;;;;;;;0.40;0.25;;;10.10;10.10;;;;;;5069693;28;20056;-72
2023/09/23 02:12:04;;;;;;;0.20;0.20;;;10.10;97.50;;;;;;5086119;28;20055;-72
2023/09/23 02:14:31;;;;;;;0.50;0.40;;;10.10;99.90;;;;;;5067888;28;20044;-73
2023/09/23 02:16:58;;;;;;;1.33;0.57;;;10.10;99.90;;;;;;5085698;28;20044;-72
2023/09/23 02:19:25;;;;;;;0.43;0.40;;;10.00;99.90;;;;;;5069149;28;20048;-71
2023/09/23 02:21:52;;;;;;;0.52;0.38;;;10.00;99.90;;;;;;5048632;28;20628;-73
2023/09/23 02:24:19;;;;;;;1.20;0.50;;;10.00;99.90;;;;;;5067964;28;20040;-72
2023/09/23 02:26:46;;;;;;;0.80;0.45;;;10.00;99.90;;;;;;5054081;28;20619;-72
2023/09/23 02:29:16;;;;;;;0.50;0.30;;;10.00;99.90;;;;;;5088080;28;20159;-72
2023/09/23 02:31:48;;;;;;;0.70;0.40;;;9.90;99.90;;;;;;5069925;28;20052;-73
2023/09/23 02:34:16;;;;;;;1.42;0.63;;;9.90;99.90;;;;;;5068970;28;20171;-73
2023/09/23 02:36:45;;;;;;;0.68;0.50;;;9.90;99.90;;;;;;5082432;28;20700;-73
2023/09/23 02:39:15;;;;;;;0.85;0.50;;;9.90;99.90;;;;;;5086580;28;20148;-73
2023/09/23 02:41:45;;;;;;;1.58;0.60;;;9.90;99.90;;;;;;5084045;28;20479;-72
2023/09/23 02:44:14;;;;;;;0.38;0.35;;;9.90;99.90;;;;;;5084819;28;20402;-72
2023/09/23 02:46:42;;;;;;;0.43;0.40;;;9.90;99.90;;;;;;5067137;28;20063;-73
2023/09/23 02:49:09;;;;;;;0.82;0.50;;;9.90;99.90;;;;;;5068682;28;20044;-73
2023/09/23 02:51:36;;;;;;;0.60;0.40;;;9.90;99.90;;;;;;5066364;28;20621;-73
2023/09/23 02:54:05;;;;;;;0.30;0.30;;;9.90;99.90;;;;;;5086381;28;20693;-73
2023/09/23 02:56:34;;;;;;;1.20;0.57;;;9.90;99.90;;;;;;5084324;28;20051;-73
2023/09/23 02:59:04;;;;;;;1.05;0.50;;;9.80;99.90;;;;;;5069340;28;20109;-73
2023/09/23 03:01:31;;;;;;;1.08;0.50;;;9.80;99.90;;;;;;5083865;28;20044;-73
2023/09/23 03:04:06;;;;;;;1.00;0.47;;;9.80;99.90;;;;;;5086030;28;20102;-73
2023/09/23 03:06:38;;;;;;;0.40;0.40;;;9.80;99.90;;;;;;5082065;28;20078;-73
2023/09/23 03:09:08;;;;;;;0.25;0.20;;;9.80;99.90;;;;;;5086313;28;20494;-73
2023/09/23 03:11:42;;;;;;;2.45;0.45;;;9.80;99.90;;;;;;5084341;28;20403;-73
2023/09/23 03:14:17;;;;;;;1.20;0.60;;;9.80;99.90;;;;;;5086220;28;20048;-73
2023/09/23 03:16:49;;;;;;;0.88;0.40;;;9.70;1.00;;;;;;5081550;28;20066;-73
2023/09/23 03:19:22;;;;;;;0.85;0.45;;;9.70;1.00;;;;;;5069642;28;20048;-73
2023/09/23 03:21:50;;;;;;;0.93;0.40;;;9.70;1.00;;;;;;5070149;28;20052;-73
2023/09/23 03:24:17;;;;;;;1.42;0.70;;;9.70;1.00;;;;;;5082635;28;20056;-73
2023/09/23 03:26:46;;;;;;;0.88;0.50;;;9.70;1.00;;;;;;5094759;28;20125;-73
2023/09/23 03:29:14;;;;;;;0.75;0.40;;;9.70;1.00;;;;;;5082912;28;20059;-73
2023/09/23 03:31:41;;;;;;;0.88;0.55;;;9.70;1.00;;;;;;5083662;28;20044;-73
2023/09/23 03:34:08;;;;;;;0.82;0.55;;;9.70;1.00;;;;;;5084877;28;20513;-73
2023/09/23 03:36:35;;;;;;;0.55;0.40;;;9.70;1.00;;;;;;5082232;28;20401;-73
2023/09/23 03:39:01;;;;;;;0.80;0.40;;;9.70;1.00;;;;;;5084664;28;20056;-73
2023/09/23 03:41:28;;;;;;;1.13;0.50;;;9.70;1.00;;;;;;5084727;28;20546;-72
2023/09/23 03:43:55;;;;;;;0.52;0.43;;;9.70;1.00;;;;;;5084422;28;20056;-73
2023/09/23 03:46:22;;;;;;;1.48;0.60;;;9.70;1.00;;;;;;5082431;28;20050;-73
2023/09/23 03:48:49;;;;;;;1.10;0.60;;;9.70;1.00;;;;;;5083995;28;20452;-73
2023/09/23 03:51:16;;;;;;;1.48;0.65;;;9.60;1.00;;;;;;5083272;28;20060;-72
2023/09/23 03:53:44;;;;;;;1.17;0.57;;;9.70;1.00;;;;;;5066837;28;20051;-73
2023/09/23 03:56:11;;;;;;;0.98;0.70;;;9.70;1.00;;;;;;5064309;28;20049;-73
2023/09/23 03:58:38;;;;;;;1.95;0.98;;;9.70;1.00;;;;;;5066993;28;20048;-73
2023/09/23 04:01:10;;;;;;;1.05;0.55;;;9.60;1.00;;;;;;5082763;28;20063;-73
2023/09/23 04:03:37;;;;;;;0.82;0.40;;;9.60;1.00;;;;;;5083682;28;20123;-73
2023/09/23 04:06:05;;;;;;;0.32;0.30;;;9.60;1.00;;;;;;5082929;28;20514;-73
2023/09/23 04:08:32;;;;;;;1.55;0.40;;;9.60;1.00;;;;;;5081045;28;20040;-73
2023/09/23 04:11:05;;;;;;;0.68;0.68;;;9.60;1.00;;;;;;5067013;28;20101;-73
2023/09/23 04:13:32;;;;;;;0.65;0.40;;;9.60;1.00;;;;;;5066740;28;20048;-72
2023/09/23 04:16:02;;;;;;;1.48;0.63;;;9.60;1.00;;;;;;5083544;28;20383;-73
2023/09/23 04:18:29;;;;;;;0.45;0.40;;;9.50;1.00;;;;;;5084042;28;20059;-73
2023/09/23 04:20:57;;;;;;;0.47;0.32;;;9.60;1.00;;;;;;5086038;28;20097;-73
2023/09/23 04:23:24;;;;;;;1.58;0.55;;;9.60;1.00;;;;;;5082491;28;20056;-73
2023/09/23 04:25:52;;;;;;;0.93;0.52;;;9.60;1.00;;;;;;5083435;28;20475;-73
2023/09/23 04:28:19;;;;;;;0.90;0.60;;;9.60;1.00;;;;;;5082499;28;21914;-73
2023/09/23 04:30:45;;;;;;;0.85;0.40;;;9.60;1.00;;;;;;5084042;28;20515;-72
2023/09/23 04:33:12;;;;;;;0.88;0.60;;;9.60;99.90;;;;;;5082818;28;20200;-73
2023/09/23 04:35:40;;;;;;;1.23;0.50;;;9.60;99.90;;;;;;5084163;28;20069;-73
2023/09/23 04:38:07;;;;;;;0.55;0.47;;;9.60;99.90;;;;;;5061681;28;20132;-73
2023/09/23 04:40:34;;;;;;;1.30;0.45;;;9.60;99.90;;;;;;5066532;28;20039;-73
2023/09/23 04:43:04;;;;;;;0.55;0.40;;;9.60;99.90;;;;;;5077266;28;20155;-73
2023/09/23 04:45:30;;;;;;;1.83;0.63;;;9.50;99.90;;;;;;5084695;28;20052;-73
2023/09/23 04:48:00;;;;;;;0.88;0.50;;;9.60;99.90;;;;;;5082974;28;20052;-73
2023/09/23 04:50:28;;;;;;;0.55;0.50;;;9.50;99.90;;;;;;5065750;28;20062;-73
2023/09/23 04:52:54;;;;;;;0.70;0.43;;;9.60;99.90;;;;;;5064144;28;20491;-73
2023/09/23 04:55:22;;;;;;;1.17;0.60;;;9.50;99.90;;;;;;5083417;28;20367;-73
2023/09/23 04:57:49;;;;;;;1.48;0.50;;;9.50;99.90;;;;;;5083478;28;20394;-73
2023/09/23 05:00:19;;;;;;;1.40;0.50;;;9.50;99.90;;;;;;5082801;28;20051;-73
2023/09/23 05:02:49;;;;;;;1.00;0.45;;;9.50;99.90;;;;;;5077896;28;20521;-73
2023/09/23 05:05:17;;;;;;;0.50;0.30;;;9.50;99.90;;;;;;5078843;28;20052;-74
2023/09/23 05:07:45;;;;;;;0.63;0.40;;;9.50;99.90;;;;;;5046752;28;20165;-73
2023/09/23 05:10:12;;;;;;;0.60;0.43;;;9.50;99.90;;;;;;5079060;28;20055;-72
2023/09/23 05:12:41;;;;;;;1.00;0.40;;;9.50;99.90;;;;;;5080715;28;20056;-72
2023/09/23 05:15:12;;;;;;;0.52;0.45;;;9.40;99.90;;;;;;5080858;28;20176;-72
2023/09/23 05:17:39;;;;;;;1.65;0.50;;;9.40;99.90;;;;;;5081537;28;20079;-74
2023/09/23 05:20:17;;;;;;;2.15;0.60;;;9.40;99.90;;;;;;5063888;28;20131;-74
2023/09/23 05:22:44;;;;;;;1.10;0.52;;;9.40;99.90;;;;;;5078156;28;20131;-74
2023/09/23 05:25:11;;;;;;;0.50;0.28;;;9.40;99.90;;;;;;5080374;28;20052;-72
2023/09/23 05:27:38;;;;;;;1.27;0.30;;;9.40;99.90;;;;;;5079933;28;20320;-73
2023/09/23 05:30:10;;;;;;;0.73;0.43;;;9.30;99.90;;;;;;5079317;28;20047;-73
2023/09/23 05:32:37;;;;;;;1.45;0.50;;;9.40;99.90;;;;;;5073359;28;20367;-72
2023/09/23 05:35:11;;;;;;;0.52;0.40;;;9.30;99.90;;;;;;5072646;28;20363;-72
2023/09/23 05:37:39;;;;;;;;;;;9.30;99.90;;;;;;5069195;28;20097;-72
2023/09/23 05:42:42;;;;;;;1.02;0.43;;;9.30;1.00;;;;;;5056098;28;20056;-72
2023/09/23 05:45:10;;;;;;;0.68;0.50;;;9.30;1.00;;;;;;5072114;28;20488;-72
2023/09/23 05:47:37;;;;;;;0.65;0.30;;;9.30;1.00;;;;;;5052907;28;20095;-72
2023/09/23 05:50:06;;;;;;;0.22;0.20;;;9.20;1.00;;;;;;5054049;28;20055;-72
2023/09/23 05:52:35;;;;;;;0.73;0.38;;;9.20;1.00;;;;;;5071315;28;20052;-72
2023/09/23 05:55:03;;;;;;;0.75;0.50;;;9.20;1.00;;;;;;5074863;28;20116;-72
2023/09/23 05:57:30;;;;;;;0.65;0.40;;;9.20;1.00;;;;;;5051522;28;20067;-72
2023/09/23 05:59:57;;;;;;;3.17;0.90;;;9.20;1.00;;;;;;5072905;28;20106;-72
2023/09/23 06:02:24;;;;;;;1.10;0.60;;;9.20;1.00;;;;;;5070372;28;20052;-72
2023/09/23 06:04:51;;;;;;;0.90;0.50;;;9.30;1.00;;;;;;5070799;28;20148;-72
2023/09/23 06:07:18;;;;;;;0.55;0.40;;;9.30;1.00;;;;;;5052358;28;20068;-72
2023/09/23 06:09:45;;;;;;;0.70;0.40;;;9.30;1.00;;;;;;5074980;28;20047;-72
2023/09/23 06:12:12;;;;;;;1.27;0.73;;;9.30;1.00;;;;;;5056842;28;20047;-72
2023/09/23 06:14:38;;;;;;;0.43;0.43;;;9.30;1.00;;;;;;5069478;28;20087;-72
2023/09/23 06:17:05;;;;;;;1.25;0.47;;;9.30;1.00;;;;;;5070464;28;20416;-72
2023/09/23 06:19:33;;;;;;;0.70;0.50;;;9.30;99.90;;;;;;5072519;28;20147;-72
2023/09/23 06:22:00;;;;;;;1.00;0.60;;;9.30;99.90;;;;;;5068171;28;20067;-73
2023/09/23 06:24:27;;;;;;;1.30;0.40;;;9.40;99.90;;;;;;5070552;28;20436;-73
2023/09/23 06:26:54;;;;;;;1.27;0.40;;;9.40;99.90;;;;;;5071443;28;20110;-73
2023/09/23 06:29:21;;;;;;;0.55;0.40;;;9.50;99.90;;;;;;5054413;28;20217;-73
2023/09/23 06:31:48;;;;;;;1.05;0.60;;;9.50;99.90;;;;;;5067635;28;20547;-73
2023/09/23 06:34:14;;;;;;;0.52;0.40;;;9.50;99.90;;;;;;5074556;28;20431;-72
2023/09/23 06:36:41;;;;;;;1.73;0.70;;;9.50;42.60;;;;;;5071739;28;20079;-73
2023/09/23 06:39:08;;;;;;;0.32;0.30;;;9.60;1.00;;;;;;5074044;28;20140;-73
2023/09/23 06:41:35;;;;;;;0.40;0.30;;;9.60;1.00;;;;;;5073357;28;20053;-72
2023/09/23 06:44:03;;;;;;;1.20;0.40;;;9.70;1.00;;;;;;5080255;28;20055;-72
2023/09/23 06:46:31;;;;;;;0.93;0.40;;;9.70;99.90;;;;;;5074174;28;20487;-72
2023/09/23 06:48:58;;;;;;;0.20;0.20;;;9.70;99.90;;;;;;5075260;28;20040;-72
2023/09/23 06:51:27;;;;;;;1.00;0.50;;;9.80;99.90;;;;;;5078176;28;20051;-72
2023/09/23 06:53:53;;;;;;;0.60;0.40;;;9.80;99.90;;;;;;5061459;28;20094;-72
2023/09/23 06:56:20;;;;;;;1.77;0.70;;;9.90;99.90;;;;;;5074498;28;20047;-72
2023/09/23 06:58:47;;;;;;;0.57;0.38;;;9.90;1.00;;;;;;5074559;28;20131;-72
2023/09/23 07:01:14;;;;;;;0.63;0.50;;;10.00;1.00;;;;;;5056986;28;20044;-72
2023/09/23 07:03:41;;;;;;;1.48;0.75;;;10.00;1.00;;;;;;5078240;28;20040;-72
2023/09/23 07:06:08;;;;;;;1.13;0.50;;;10.00;99.90;;;;;;5093624;28;20172;-71
2023/09/23 07:08:35;;;;;;;0.65;0.50;;;10.10;99.90;;;;;;5077579;28;20036;-76
2023/09/23 07:11:02;;;;;;;1.27;0.40;;;10.10;99.90;;;;;;5044794;28;20093;-76
2023/09/23 07:13:30;;;;;;;0.65;0.40;;;10.20;99.90;;;;;;5077894;28;20044;-75
2023/09/23 07:15:57;;;;;;;0.47;0.40;;;10.20;99.90;;;;;;5077120;28;20624;-75
2023/09/23 07:18:24;;;;;;;0.65;0.40;;;10.30;99.90;;;;;;5074580;28;20044;-76
2023/09/23 07:20:56;;;;;;;0.93;0.47;;;10.30;97.00;;;;;;5061723;28;20077;-75
2023/09/23 07:23:23;;;;;;;0.77;0.50;;;10.40;64.80;;;;;;5043494;28;20409;-72
2023/09/23 07:25:50;;;;;;;0.68;0.50;;;10.50;21.40;;;;;;5060635;28;20071;-74
2023/09/23 07:28:17;;;;;;;0.95;0.47;;;10.50;1.00;;;;;;5055876;28;20071;-73
2023/09/23 07:30:44;;;;;;;1.52;0.50;;;10.60;1.00;;;;;;5076952;28;20048;-73
2023/09/23 07:33:11;;;;;;;0.98;0.45;;;10.60;1.00;;;;;;5068655;28;20126;-73
2023/09/23 07:35:38;;;;;;;1.55;0.65;;;10.70;1.00;;;;;;5079656;28;20052;-73
2023/09/23 07:38:05;;;;;;;0.70;0.47;;;10.70;1.00;;;;;;5059609;28;20051;-74
2023/09/23 07:40:31;;;;;;;0.40;0.40;;;10.80;1.00;;;;;;5070538;28;20418;-73
2023/09/23 07:42:58;;;;;;;0.63;0.32;;;10.90;1.00;;;;;;5062631;28;20052;-74
2023/09/23 07:45:25;;;;;;;0.55;0.40;;;10.90;1.00;;;;;;5068154;28;20063;-74
2023/09/23 07:47:52;;;;;;;0.63;0.43;;;11.00;1.00;;;;;;5072296;28;20166;-74
2023/09/23 07:50:19;;;;;;;0.95;0.68;;;11.10;99.90;;;;;;5080156;28;20063;-74
2023/09/23 07:52:47;;;;;;;1.65;0.80;;;11.10;99.90;;;;;;5072887;28;20901;-74
2023/09/23 07:55:13;;;;;;;0.60;0.35;;;11.20;99.90;;;;;;5058354;28;20160;-74
2023/09/23 07:57:40;;;;;;;1.08;0.50;;;11.20;99.90;;;;;;5071649;28;20051;-74
2023/09/23 08:00:11;;;;;;;1.30;0.60;;;11.30;99.90;;;;;;5074202;28;20167;-74
2023/09/23 08:02:38;;;;;;;0.60;0.40;;;11.30;99.90;;;;;;5060273;28;20050;-74
2023/09/23 08:05:05;;;;;;;1.33;0.55;;;11.40;99.90;;;;;;5079093;28;20508;-74
2023/09/23 08:07:32;;;;;;;1.00;0.75;;;11.40;99.90;;;;;;5073863;28;20040;-74
2023/09/23 08:09:59;;;;;;;1.60;0.55;;;11.50;99.90;;;;;;5059324;28;20047;-74
2023/09/23 08:12:27;;;;;;;1.00;0.50;;;11.50;99.90;;;;;;5071937;28;20360;-74
2023/09/23 08:14:54;;;;;;;0.60;0.40;;;11.60;99.90;;;;;;5041395;28;20384;-74
2023/09/23 08:17:21;;;;;;;0.85;0.63;;;11.60;99.90;;;;;;5079308;28;20387;-74
2023/09/23 08:19:48;;;;;;;1.08;0.55;;;11.70;99.90;;;;;;5077205;28;20052;-74
2023/09/23 08:22:15;;;;;;;1.67;0.95;;;11.80;99.90;;;;;;5078530;28;20509;-73
2023/09/23 08:24:42;;;;;;;1.00;0.90;;;11.80;99.90;;;;;;5075190;28;20123;-73
2023/09/23 08:27:09;;;;;;;1.63;0.70;;;11.80;99.90;;;;;;5055443;28;20044;-73
2023/09/23 08:29:36;;;;;;;2.28;0.80;;;11.90;99.90;;;;;;5073110;28;20199;-74
2023/09/23 08:32:03;;;;;;;2.10;0.80;;;11.90;99.90;;;;;;5072857;28;20604;-74
2023/09/23 08:34:30;;;;;;;1.23;0.70;;;12.00;99.90;;;;;;5070765;28;20043;-74
2023/09/23 08:36:57;;;;;;;1.55;0.65;;;12.10;99.90;;;;;;5068556;28;20053;-73
2023/09/23 08:39:24;;;;;;;0.55;0.40;;;12.10;99.90;;;;;;5074029;28;20051;-74
2023/09/23 08:41:52;;;;;;;1.73;0.77;;;12.20;99.90;;;;;;5075019;28;20068;-74
2023/09/23 08:44:22;;;;;;;1.95;0.90;;;12.20;99.90;;;;;;5059092;28;20091;-74
2023/09/23 08:46:52;;;;;;;2.05;0.77;;;12.30;99.90;;;;;;5074690;28;20139;-74
2023/09/23 08:49:21;;;;;;;1.83;0.70;;;12.30;99.90;;;;;;5067879;28;20094;-75
2023/09/23 08:51:57;;;;;;;1.30;0.60;;;12.30;99.90;;;;;;5072153;28;20203;-74
2023/09/23 08:54:27;;;;;;;1.98;0.80;;;12.40;99.90;;;;;;5072893;28;20121;-74
2023/09/23 08:56:54;;;;;;;1.58;0.73;;;12.50;99.90;;;;;;5033149;28;20511;-74
2023/09/23 08:59:23;;;;;;;2.75;0.77;;;12.60;99.90;;;;;;5060173;28;20137;-74
2023/09/23 09:01:50;;;;;;;1.05;0.55;;;12.70;99.90;;;;;;5072326;28;20550;-74
2023/09/23 09:04:17;;;;;;;2.15;0.77;;;12.70;99.90;;;;;;5074392;28;20567;-74
2023/09/23 09:07:00;;;;;;;1.17;0.60;;;12.90;99.90;;;;;;5053194;28;20059;-74
2023/09/23 09:09:27;;;;;;;0.60;0.47;;;13.00;99.90;;;;;;5073070;28;20166;-73
2023/09/23 09:11:54;;;;;;;2.60;1.20;;;13.00;99.90;;;;;;5074807;28;20052;-74
2023/09/23 09:14:24;;;;;;;3.05;0.80;;;13.10;99.90;;;;;;5075797;28;20052;-74
2023/09/23 09:16:51;;;;;;;3.22;1.45;;;13.20;99.90;;;;;;5076778;28;20514;-74
2023/09/23 09:19:19;;;;;;;2.05;0.90;;;13.20;99.90;;;;;;5077307;28;20052;-74
2023/09/23 09:21:46;;;;;;;1.02;0.70;;;13.30;99.90;;;;;;5076184;28;20498;-73
2023/09/23 09:24:13;;;;;;;1.95;0.90;;;13.30;99.90;;;;;;5076793;28;20403;-74
2023/09/23 09:26:40;;;;;;;1.13;0.60;;;13.50;99.90;;;;;;5076272;28;20055;-73
2023/09/23 09:29:07;;;;;;;2.22;0.80;;;13.60;99.90;;;;;;5076578;28;20056;-74
2023/09/23 09:31:35;;;;;;;2.20;0.85;;;13.60;99.90;;;;;;5077996;28;20052;-74
2023/09/23 09:34:09;;;;;;;1.77;0.80;;;13.70;99.90;;;;;;5057436;28;20446;-74
2023/09/23 09:36:37;;;;;;;0.90;0.43;;;13.80;99.90;;;;;;5053398;28;20048;-74
2023/09/23 09:39:07;;;;;;;1.58;0.60;;;13.90;99.90;;;;;;5061003;28;20066;-74
2023/09/23 09:41:46;;;;;;;3.38;0.80;;;13.90;99.90;;;;;;5075705;28;20048;-74
2023/09/23 09:44:15;;;;;;;1.92;0.90;;;13.90;99.90;;;;;;5075373;28;20394;-74
2023/09/23 09:46:45;;;;;;;1.38;0.60;;;13.90;99.90;;;;;;5076857;28;20058;-74
2023/09/23 09:49:16;;;;;;;2.10;0.60;;;14.00;99.90;;;;;;5059201;28;20131;-74
2023/09/23 09:51:46;;;;;;;0.75;0.57;;;14.00;99.90;;;;;;5057054;28;20357;-74
2023/09/23 09:54:12;;;;;;;2.08;0.68;;;14.10;99.90;;;;;;5073028;28;20598;-74
2023/09/23 09:56:40;;;;;;;2.38;0.75;;;14.20;99.90;;;;;;5057861;28;20044;-74
2023/09/23 09:59:07;;;;;;;2.05;0.98;;;14.30;99.90;;;;;;5092831;28;20052;-74
2023/09/23 10:01:35;;;;;;;1.80;0.88;;;14.30;99.90;;;;;;5076114;28;20410;-74
2023/09/23 10:04:11;;;;;;;2.78;1.08;;;14.40;99.90;;;;;;5073238;28;20359;-74
2023/09/23 10:06:39;;;;;;;1.70;0.85;;;14.40;99.90;;;;;;5073756;28;20091;-74
2023/09/23 10:09:14;;;;;;;2.40;1.00;;;14.50;99.90;;;;;;5044228;28;20105;-74
2023/09/23 10:11:41;;;;;;;1.65;0.73;;;14.60;99.90;;;;;;5074229;28;20051;-74
2023/09/23 10:14:12;;;;;;;1.42;0.80;;;14.60;99.90;;;;;;5073378;28;21037;-74
2023/09/23 10:16:39;;;;;;;1.33;0.63;;;14.70;99.90;;;;;;5074290;28;20052;-74
2023/09/23 10:19:10;;;;;;;2.00;1.15;;;14.80;99.90;;;;;;5059492;28;20166;-74
2023/09/23 10:21:38;;;;;;;2.42;1.05;;;14.80;99.90;;;;;;5058078;28;20046;-73
2023/09/23 10:24:07;;;;;;;1.52;0.77;;;14.80;99.90;;;;;;5079782;28;20129;-74
2023/09/23 10:26:39;;;;;;;1.33;0.60;;;14.90;99.90;;;;;;5061773;28;20230;-74
2023/09/23 10:29:06;;;;;;;3.00;0.90;;;15.00;99.90;;;;;;5059478;28;20074;-74
2023/09/23 10:31:34;;;;;;;2.70;0.90;;;15.10;99.90;;;;;;5056997;28;20052;-74
2023/09/23 10:34:05;;;;;;;1.45;0.80;;;15.10;99.90;;;;;;5078094;28;20048;-74
2023/09/23 10:36:32;;;;;;;2.22;0.90;;;15.20;99.90;;;;;;5075851;28;20052;-74
2023/09/23 10:39:06;;;;;;;2.72;1.00;;;15.30;99.90;;;;;;5062652;28;20058;-74
2023/09/23 10:41:36;;;;;;;1.33;0.70;;;15.50;99.90;;;;;;5077579;28;20067;-75
2023/09/23 10:44:04;;;;;;;1.52;0.80;;;15.60;99.90;;;;;;5068370;28;20048;-74
2023/09/23 10:46:31;;;;;;;2.15;0.82;;;15.70;99.90;;;;;;5075625;28;20044;-74
2023/09/23 10:48:59;;;;;;;0.57;0.35;;;15.80;99.90;;;;;;5075568;28;20421;-73
2023/09/23 10:51:27;;;;;;;0.82;0.63;;;15.90;99.90;;;;;;5059356;28;20054;-74
2023/09/23 10:53:55;;;;;;;2.78;1.17;;;16.10;99.90;;;;;;5069886;28;20045;-74
2023/09/23 10:56:24;;;;;;;2.00;1.08;;;16.10;99.90;;;;;;5056757;28;20052;-74
2023/09/23 10:58:52;;;;;;;2.20;0.88;;;16.20;99.90;;;;;;5076941;28;20201;-73
2023/09/23 11:01:20;;;;;;;3.88;1.10;;;16.10;99.90;;;;;;5060157;28;20047;-74
2023/09/23 11:03:48;;;;;;;0.95;0.60;;;16.20;99.90;;;;;;5077242;28;20055;-75
2023/09/23 11:06:16;;;;;;;1.52;1.00;;;16.30;97.00;;;;;;5079272;28;20068;-74
2023/09/23 11:08:43;;;;;;;2.10;0.75;;;16.30;99.90;;;;;;5071426;28;20418;-74
2023/09/23 11:11:12;;;;;;;1.60;0.60;;;16.20;93.60;;;;;;5073715;28;20056;-74
2023/09/23 11:13:39;;;;;;;1.45;0.75;;;16.30;95.00;;;;;;5067287;28;20075;-74
2023/09/23 11:16:09;;;;;;;1.35;0.50;;;16.50;94.80;;;;;;5057827;28;20059;-74
2023/09/23 11:18:39;;;;;;;1.25;0.50;;;16.50;92.30;;;;;;5078441;28;20167;-74
2023/09/23 11:21:06;;;;;;;1.08;0.70;;;16.70;95.20;;;;;;5069865;28;20167;-74
2023/09/23 11:23:34;;;;;;;1.05;0.57;;;16.90;93.70;;;;;;5053688;28;20048;-73
2023/09/23 11:26:01;;;;;;;0.32;0.32;;;17.30;91.70;;;;;;5072483;28;20064;-74
2023/09/23 11:28:28;;;;;;;0.98;0.60;;;17.60;90.40;;;;;;5069263;28;20227;-74
2023/09/23 11:30:56;;;;;;;1.58;0.55;;;18.00;88.20;;;;;;5072492;28;20051;-74
2023/09/23 11:33:24;;;;;;;1.80;0.60;;;18.10;75.20;;;;;;5073303;28;20158;-74
2023/09/23 11:35:51;;;;;;;3.38;1.05;;;18.20;65.80;;;;;;5045007;28;20044;-73
2023/09/23 11:38:19;;;;;;;0.93;0.65;;;17.90;55.00;;;;;;5060273;28;20051;-74
2023/09/23 11:40:46;;;;;;;1.25;0.60;;;17.70;54.80;;;;;;5077705;28;20051;-74
2023/09/23 11:43:13;;;;;;;0.95;0.50;;;17.60;54.70;;;;;;5078558;28;20048;-74
2023/09/23 11:45:43;;;;;;;1.08;0.50;;;17.70;51.80;;;;;;5077721;28;20048;-73
2023/09/23 11:48:10;;;;;;;0.40;0.35;;;17.90;51.20;;;;;;5080120;28;20166;-74
2023/09/23 11:50:37;;;;;;;0.63;0.50;;;18.30;52.60;;;;;;5078111;28;20054;-74
2023/09/23 11:53:04;;;;;;;1.35;0.63;;;18.50;48.50;;;;;;5073165;28;20048;-74
2023/09/23 11:55:32;;;;;;;0.98;0.50;;;18.60;44.50;;;;;;5057665;28;20068;-74
2023/09/23 11:58:02;;;;;;;0.55;0.52;;;18.30;38.60;;;;;;5076756;28;20048;-73
2023/09/23 12:00:29;;;;;;;1.20;0.75;;;18.30;39.40;;;;;;5075612;28;20048;-74
2023/09/23 12:02:56;;;;;;;1.30;0.80;;;18.40;37.50;;;;;;5036959;28;20093;-74
2023/09/23 12:05:28;;;;;;;2.25;0.75;;;18.80;36.00;;;;;;5076113;28;20048;-74
2023/09/23 12:07:59;;;;;;;1.23;0.70;;;19.00;34.60;;;;;;5075078;28;20069;-74
2023/09/23 12:10:28;;;;;;;1.90;0.80;;;19.40;35.80;;;;;;5077315;28;20048;-74
2023/09/23 12:13:02;;;;;;;1.65;0.73;;;19.40;33.30;;;;;;5073079;28;20067;-74
2023/09/23 12:15:31;;;;;;;0.68;0.50;;;19.40;30.00;;;;;;5073027;28;20442;-74
2023/09/23 12:17:58;;;;;;;1.23;0.70;;;19.30;29.30;;;;;;5059397;28;20055;-74
2023/09/23 12:20:26;;;;;;;0.80;0.47;;;19.30;29.20;;;;;;5078143;28;20048;-74
2023/09/23 12:22:52;;;;;;;0.90;0.45;;;19.10;27.60;;;;;;5080169;28;20412;-74
2023/09/23 12:25:20;;;;;;;0.68;0.40;;;19.00;26.90;;;;;;5061981;28;20055;-74
2023/09/23 12:27:47;;;;;;;0.65;0.40;;;18.80;23.40;;;;;;5078571;28;20056;-74
2023/09/23 12:30:17;;;;;;;0.85;0.50;;;18.50;20.10;;;;;;5075856;28;20634;-74
2023/09/23 12:32:44;;;;;;;1.50;0.57;;;18.80;22.60;;;;;;5059154;28;20126;-75
2023/09/23 12:35:11;;;;;;;1.27;0.60;;;19.30;22.50;;;;;;5078113;28;20040;-75
2023/09/23 12:37:38;;;;;;;0.55;0.40;;;19.20;17.50;;;;;;5074925;28;20131;-74
2023/09/23 12:40:07;;;;;;;1.20;0.63;;;19.20;19.00;;;;;;5059373;28;20109;-75
2023/09/23 12:42:33;;;;;;;1.00;0.50;;;19.70;20.60;;;;;;5059769;28;20448;-74
2023/09/23 12:45:00;;;;;;;1.88;0.85;;;19.90;17.30;;;;;;5075903;28;20048;-74
2023/09/23 12:47:32;;;;;;;1.70;0.82;;;19.90;16.60;;;;;;5080184;28;20062;-74
2023/09/23 12:50:18;;;;;;;0.80;0.65;;;20.00;16.30;;;;;;5077866;28;20414;-74
2023/09/23 12:52:46;;;;;;;1.50;0.80;;;20.40;19.70;;;;;;5067242;28;20051;-74
2023/09/23 12:55:13;;;;;;;1.92;0.80;;;20.80;17.70;;;;;;5078587;28;20048;-75
2023/09/23 12:57:40;;;;;;;0.68;0.43;;;20.40;12.30;;;;;;5077282;28;20039;-75
2023/09/23 13:00:07;;;;;;;1.48;0.50;;;20.00;9.90;;;;;;5076429;28;20072;-75